Time;durP1;ratioP1;P1;durP2;ratioP2;P2;SDS_P1;SDS_P2;PMS_P1;PMS_P2;Temp;Humidity;BMP_temperature;BMP_pressure;BME280_temperature;BME280_humidity;BME280_pressure;Samples;Min_cycle;Max_cycle;Signal;HPM_P1;HPM_P2
2023/02/09 00:01:35;;;;;;;133.50;69.70;;;;;;;;;;761081;184;919886;-69
2023/02/09 00:04:01;;;;;;;118.47;58.57;;;;;;;;;;756624;184;918026;-69
2023/02/09 00:06:29;;;;;;;117.37;63.03;;;;;;;;;;757977;181;917873;-66
2023/02/09 00:08:53;;;;;;;127.57;62.87;;;;;;;;;;762810;181;819441;-66
2023/02/09 00:11:19;;;;;;;120.32;57.38;;;;;;;;;;760270;182;858885;-69
2023/02/09 00:13:45;;;;;;;120.50;59.73;;;;;;;;;;755430;182;1019875;-70
2023/02/09 00:16:10;;;;;;;112.03;59.00;;;;;;;;;;751583;182;934892;-69
2023/02/09 00:18:36;;;;;;;116.83;61.23;;;;;;;;;;752531;185;914450;-65
2023/02/09 00:21:02;;;;;;;117.57;61.87;;;;;;;;;;751121;182;915944;-66
2023/02/09 00:23:28;;;;;;;127.30;71.00;;;;;;;;;;755974;184;917420;-69
2023/02/09 00:25:54;;;;;;;134.83;68.17;;;;;;;;;;762592;182;917144;-66
2023/02/09 00:28:20;;;;;;;136.27;69.77;;;;;;;;;;754878;182;919408;-69
2023/02/09 00:30:46;;;;;;;122.17;66.60;;;;;;;;;;751668;183;918703;-69
2023/02/09 00:33:12;;;;;;;133.87;70.60;;;;;;;;;;757306;183;924020;-66
2023/02/09 00:35:38;;;;;;;130.53;68.90;;;;;;;;;;761573;183;917977;-65
2023/02/09 00:38:04;;;;;;;124.93;67.47;;;;;;;;;;765192;182;918141;-64
2023/02/09 00:40:30;;;;;;;125.62;66.28;;;;;;;;;;759819;183;919144;-69
2023/02/09 00:42:56;;;;;;;121.23;67.03;;;;;;;;;;764837;180;898116;-66
2023/02/09 00:45:22;;;;;;;132.23;67.53;;;;;;;;;;756542;183;917867;-70
2023/02/09 00:47:48;;;;;;;131.30;68.45;;;;;;;;;;754197;183;922305;-66
2023/02/09 00:50:14;;;;;;;141.30;72.53;;;;;;;;;;762710;183;633573;-69
2023/02/09 00:52:40;;;;;;;141.40;68.70;;;;;;;;;;754649;183;918112;-69
2023/02/09 00:55:06;;;;;;;121.78;66.62;;;;;;;;;;753096;183;919159;-69
2023/02/09 00:57:32;;;;;;;135.50;72.23;;;;;;;;;;757176;183;835855;-69
2023/02/09 00:59:58;;;;;;;131.48;66.00;;;;;;;;;;751923;183;919382;-66
2023/02/09 01:02:23;;;;;;;135.55;66.43;;;;;;;;;;757873;183;738009;-69
2023/02/09 01:04:49;;;;;;;132.40;68.47;;;;;;;;;;769047;180;627023;-70
2023/02/09 01:07:15;;;;;;;124.70;63.73;;;;;;;;;;752543;183;800697;-66
2023/02/09 01:09:41;;;;;;;124.50;63.23;;;;;;;;;;753374;182;921135;-64
2023/02/09 01:12:07;;;;;;;130.73;66.50;;;;;;;;;;754552;182;917669;-69
2023/02/09 01:14:33;;;;;;;130.27;67.63;;;;;;;;;;759145;182;849352;-66
2023/02/09 01:16:59;;;;;;;121.77;64.17;;;;;;;;;;757524;183;916408;-69
2023/02/09 01:19:25;;;;;;;114.97;61.37;;;;;;;;;;761656;182;897592;-70
2023/02/09 01:21:50;;;;;;;120.77;61.27;;;;;;;;;;768060;183;909727;-68
2023/02/09 01:24:16;;;;;;;127.77;62.20;;;;;;;;;;766573;180;912569;-66
2023/02/09 01:26:42;;;;;;;119.87;63.70;;;;;;;;;;752139;182;917971;-64
2023/02/09 01:29:08;;;;;;;133.07;70.80;;;;;;;;;;757039;179;925649;-65
2023/02/09 01:31:34;;;;;;;128.00;65.03;;;;;;;;;;752764;182;901509;-69
2023/02/09 01:34:00;;;;;;;119.18;64.07;;;;;;;;;;755070;182;1021208;-66
2023/02/09 01:36:25;;;;;;;111.53;61.13;;;;;;;;;;760424;180;944854;-69
2023/02/09 01:38:51;;;;;;;118.83;63.73;;;;;;;;;;760376;182;920287;-68
2023/02/09 01:41:17;;;;;;;122.17;55.03;;;;;;;;;;757627;182;919105;-70
2023/02/09 01:43:49;;;;;;;120.30;60.27;;;;;;;;;;766343;179;919160;-69
2023/02/09 01:46:15;;;;;;;123.47;63.23;;;;;;;;;;767365;181;919872;-65
2023/02/09 01:48:40;;;;;;;122.50;60.87;;;;;;;;;;767099;182;823113;-65
2023/02/09 01:51:06;;;;;;;108.93;57.93;;;;;;;;;;753019;183;915768;-66
2023/02/09 01:53:32;;;;;;;110.70;58.20;;;;;;;;;;752271;183;915997;-66
2023/02/09 01:56:00;;;;;;;113.07;59.87;;;;;;;;;;747493;183;917254;-70
2023/02/09 01:58:25;;;;;;;118.03;61.60;;;;;;;;;;741606;185;921566;-66
2023/02/09 02:00:51;;;;;;;119.00;62.60;;;;;;;;;;759543;179;915888;-69
2023/02/09 02:03:17;;;;;;;108.90;57.00;;;;;;;;;;757778;183;916078;-66
2023/02/09 02:05:43;;;;;;;121.60;60.27;;;;;;;;;;762080;183;711838;-65
2023/02/09 02:08:12;;;;;;;120.10;58.80;;;;;;;;;;753625;184;919144;-69
2023/02/09 02:10:36;;;;;;;108.77;57.60;;;;;;;;;;762432;182;909579;-66
2023/02/09 02:13:02;;;;;;;123.00;58.47;;;;;;;;;;768336;180;921765;-65
2023/02/09 02:15:28;;;;;;;115.40;59.33;;;;;;;;;;764744;180;917038;-70
2023/02/09 02:18:10;;;;;;;121.93;57.73;;;;;;;;;;753854;183;925022;-66
2023/02/09 02:20:37;;;;;;;119.73;58.67;;;;;;;;;;757603;183;921678;-69
2023/02/09 02:23:04;;;;;;;125.47;61.23;;;;;;;;;;758657;183;1023182;-69
2023/02/09 02:25:36;;;;;;;117.30;58.77;;;;;;;;;;758768;182;918105;-68
2023/02/09 02:28:12;;;;;;;127.38;58.40;;;;;;;;;;754514;182;917333;-66
2023/02/09 02:30:42;;;;;;;110.00;58.53;;;;;;;;;;764993;180;915236;-66
2023/02/09 02:33:25;;;;;;;108.73;58.73;;;;;;;;;;761722;183;918916;-65
2023/02/09 02:36:01;;;;;;;127.97;61.70;;;;;;;;;;746904;185;915629;-70
2023/02/09 02:38:33;;;;;;;111.70;57.97;;;;;;;;;;748155;186;921188;-70
2023/02/09 02:41:12;;;;;;;116.43;59.63;;;;;;;;;;752645;182;918903;-71
2023/02/09 02:43:42;;;;;;;113.70;56.03;;;;;;;;;;756187;182;919543;-65
2023/02/09 02:46:09;;;;;;;119.87;58.30;;;;;;;;;;756051;184;918681;-66
2023/02/09 02:48:39;;;;;;;107.57;53.50;;;;;;;;;;753853;185;919607;-70
2023/02/09 02:51:05;;;;;;;123.83;61.27;;;;;;;;;;756798;185;915253;-66
2023/02/09 02:53:31;;;;;;;121.63;60.87;;;;;;;;;;754080;182;919441;-71
2023/02/09 02:55:57;;;;;;;123.73;58.10;;;;;;;;;;754389;182;919498;-69
2023/02/09 02:58:23;;;;;;;117.10;59.00;;;;;;;;;;755465;185;919162;-66
2023/02/09 03:00:49;;;;;;;112.47;56.30;;;;;;;;;;750916;185;918857;-70
2023/02/09 03:03:15;;;;;;;115.30;56.67;;;;;;;;;;747390;184;816288;-66
2023/02/09 03:05:41;;;;;;;115.33;56.70;;;;;;;;;;754411;183;816607;-67
2023/02/09 03:08:07;;;;;;;116.17;58.73;;;;;;;;;;767468;183;917416;-70
2023/02/09 03:10:34;;;;;;;121.73;58.80;;;;;;;;;;759465;182;918725;-70
2023/02/09 03:13:06;;;;;;;121.00;57.23;;;;;;;;;;761834;183;920666;-69
2023/02/09 03:15:31;;;;;;;106.37;57.53;;;;;;;;;;762443;182;816311;-70
2023/02/09 03:18:03;;;;;;;121.20;61.20;;;;;;;;;;756893;183;917321;-66
2023/02/09 03:20:32;;;;;;;112.17;54.93;;;;;;;;;;760520;183;935036;-70
2023/02/09 03:22:58;;;;;;;111.07;56.00;;;;;;;;;;763724;180;922695;-69
2023/02/09 03:25:24;;;;;;;100.27;53.63;;;;;;;;;;763239;180;918147;-69
2023/02/09 03:27:52;;;;;;;119.03;54.93;;;;;;;;;;753310;185;918649;-65
2023/02/09 03:30:18;;;;;;;120.07;59.07;;;;;;;;;;753928;182;920562;-67
2023/02/09 03:32:44;;;;;;;123.20;58.07;;;;;;;;;;750274;183;938551;-66
2023/02/09 03:35:10;;;;;;;119.90;56.70;;;;;;;;;;760812;181;904946;-70
2023/02/09 03:37:36;;;;;;;128.50;57.40;;;;;;;;;;766111;179;918879;-70
2023/02/09 03:40:02;;;;;;;102.73;53.23;;;;;;;;;;764808;179;917637;-66
2023/02/09 03:42:27;;;;;;;107.93;52.50;;;;;;;;;;759988;184;920225;-67
2023/02/09 03:44:53;;;;;;;112.40;55.37;;;;;;;;;;755636;182;918492;-70
2023/02/09 03:47:19;;;;;;;101.03;54.13;;;;;;;;;;753161;185;918459;-66
2023/02/09 03:49:45;;;;;;;114.25;55.63;;;;;;;;;;758184;184;816357;-66
2023/02/09 03:52:11;;;;;;;87.40;48.43;;;;;;;;;;755910;182;918524;-70
2023/02/09 03:54:37;;;;;;;108.87;52.80;;;;;;;;;;751041;183;918606;-70
2023/02/09 03:57:03;;;;;;;101.23;50.37;;;;;;;;;;759736;182;910267;-70
2023/02/09 03:59:28;;;;;;;108.10;51.00;;;;;;;;;;759832;184;920358;-69
2023/02/09 04:01:54;;;;;;;97.40;49.97;;;;;;;;;;756488;183;817027;-66
2023/02/09 04:04:20;;;;;;;94.40;49.07;;;;;;;;;;756039;182;917234;-66
2023/02/09 04:06:46;;;;;;;87.30;46.97;;;;;;;;;;765582;181;952204;-70
2023/02/09 04:09:12;;;;;;;83.07;43.93;;;;;;;;;;755377;183;919536;-70
2023/02/09 04:11:38;;;;;;;94.13;41.70;;;;;;;;;;763146;182;917201;-70
2023/02/09 04:14:03;;;;;;;73.37;40.27;;;;;;;;;;769214;182;906620;-66
2023/02/09 04:16:29;;;;;;;84.17;42.33;;;;;;;;;;755264;183;919426;-66
2023/02/09 04:18:55;;;;;;;68.97;41.17;;;;;;;;;;755447;183;917853;-71
2023/02/09 04:21:21;;;;;;;82.13;39.33;;;;;;;;;;764164;183;826634;-66
2023/02/09 04:23:47;;;;;;;79.10;41.10;;;;;;;;;;751827;182;930906;-66
2023/02/09 04:26:13;;;;;;;71.80;37.90;;;;;;;;;;754924;182;922248;-67
2023/02/09 04:28:38;;;;;;;70.33;35.10;;;;;;;;;;758388;180;918703;-66
2023/02/09 04:31:04;;;;;;;71.20;34.20;;;;;;;;;;767026;180;847450;-66
2023/02/09 04:33:30;;;;;;;59.70;33.63;;;;;;;;;;757308;183;879926;-65
2023/02/09 04:35:56;;;;;;;64.77;32.10;;;;;;;;;;757282;183;815579;-66
2023/02/09 04:38:22;;;;;;;57.30;31.20;;;;;;;;;;770361;180;919074;-70
2023/02/09 04:40:48;;;;;;;55.23;32.20;;;;;;;;;;763046;182;928374;-70
2023/02/09 04:43:13;;;;;;;69.70;38.23;;;;;;;;;;761002;181;918446;-66
2023/02/09 04:45:39;;;;;;;63.03;33.40;;;;;;;;;;760228;182;917135;-66
2023/02/09 04:48:05;;;;;;;72.30;35.50;;;;;;;;;;756364;182;917062;-67
2023/02/09 04:50:31;;;;;;;70.30;31.77;;;;;;;;;;756098;182;922550;-70
2023/02/09 04:52:57;;;;;;;63.33;33.03;;;;;;;;;;755500;183;919107;-65
2023/02/09 04:55:23;;;;;;;61.63;30.60;;;;;;;;;;758810;183;919717;-69
2023/02/09 05:00:20;;;;;;;54.53;28.10;;;;;;;;;;761176;183;897627;-66
2023/02/09 05:02:46;;;;;;;50.47;27.73;;;;;;;;;;756853;182;915948;-66
2023/02/09 05:05:12;;;;;;;57.70;31.40;;;;;;;;;;752810;183;918775;-65
2023/02/09 05:07:38;;;;;;;55.47;28.50;;;;;;;;;;761166;183;927498;-66
2023/02/09 05:10:04;;;;;;;46.72;26.52;;;;;;;;;;758356;183;890234;-66
2023/02/09 05:12:30;;;;;;;48.50;25.87;;;;;;;;;;755954;183;917322;-65
2023/02/09 05:14:55;;;;;;;51.67;27.10;;;;;;;;;;760176;183;612895;-65
2023/02/09 05:17:21;;;;;;;59.63;28.07;;;;;;;;;;756875;179;920936;-65
2023/02/09 05:19:47;;;;;;;43.77;26.60;;;;;;;;;;763879;181;919121;-70
2023/02/09 05:22:13;;;;;;;47.50;27.10;;;;;;;;;;757729;183;817832;-66
2023/02/09 05:24:39;;;;;;;48.00;28.00;;;;;;;;;;760662;183;817971;-70
2023/02/09 05:27:05;;;;;;;46.60;27.60;;;;;;;;;;767111;182;636616;-65
2023/02/09 05:29:31;;;;;;;47.78;26.75;;;;;;;;;;759032;179;814699;-70
2023/02/09 05:31:56;;;;;;;54.13;26.03;;;;;;;;;;757915;181;863662;-70
2023/02/09 05:34:23;;;;;;;50.60;27.00;;;;;;;;;;764367;183;773222;-66
2023/02/09 05:36:49;;;;;;;51.07;26.50;;;;;;;;;;756883;185;619026;-69
2023/02/09 05:39:15;;;;;;;40.88;23.50;;;;;;;;;;760089;181;915026;-70
2023/02/09 05:44:12;;;;;;;48.57;23.33;;;;;;;;;;762660;182;915138;-66
2023/02/09 05:46:38;;;;;;;46.17;24.73;;;;;;;;;;757148;182;917752;-66
2023/02/09 05:49:04;;;;;;;44.53;24.27;;;;;;;;;;756304;183;925495;-70
2023/02/09 05:51:29;;;;;;;51.90;25.00;;;;;;;;;;759865;183;919187;-70
2023/02/09 05:53:55;;;;;;;42.30;25.27;;;;;;;;;;758377;181;930876;-66
2023/02/09 05:56:21;;;;;;;40.43;23.93;;;;;;;;;;756324;183;917309;-70
2023/02/09 05:58:47;;;;;;;49.03;26.23;;;;;;;;;;755959;183;920397;-69
2023/02/09 06:01:13;;;;;;;46.50;26.93;;;;;;;;;;762565;183;1021447;-70
2023/02/09 06:03:39;;;;;;;47.77;25.43;;;;;;;;;;761065;182;856426;-69
2023/02/09 06:06:05;;;;;;;47.47;25.97;;;;;;;;;;754532;183;918663;-66
2023/02/09 06:08:31;;;;;;;45.20;24.77;;;;;;;;;;762853;182;918749;-70
2023/02/09 06:10:57;;;;;;;45.53;23.77;;;;;;;;;;758113;182;918452;-65
2023/02/09 06:13:23;;;;;;;47.70;23.97;;;;;;;;;;759526;182;832091;-66
2023/02/09 06:15:48;;;;;;;55.83;27.03;;;;;;;;;;761216;182;917759;-70
2023/02/09 06:18:14;;;;;;;62.53;31.00;;;;;;;;;;757012;183;908172;-70
2023/02/09 06:20:40;;;;;;;61.10;32.90;;;;;;;;;;757115;182;918479;-66
2023/02/09 06:23:06;;;;;;;62.50;35.33;;;;;;;;;;758429;180;919374;-70
2023/02/09 06:25:32;;;;;;;60.73;35.80;;;;;;;;;;769933;179;916966;-63
2023/02/09 06:27:58;;;;;;;67.13;35.67;;;;;;;;;;755285;182;918672;-70
2023/02/09 06:30:23;;;;;;;74.73;36.37;;;;;;;;;;754243;183;916940;-70
2023/02/09 06:32:49;;;;;;;69.20;40.23;;;;;;;;;;763763;182;815034;-65
2023/02/09 06:35:15;;;;;;;64.67;34.30;;;;;;;;;;756337;183;917508;-70
2023/02/09 06:37:41;;;;;;;59.87;34.87;;;;;;;;;;758066;183;918292;-70
2023/02/09 06:40:07;;;;;;;67.93;38.10;;;;;;;;;;760811;182;919551;-70
2023/02/09 06:45:05;;;;;;;71.03;42.27;;;;;;;;;;756191;182;918806;-66
2023/02/09 06:47:31;;;;;;;68.83;42.67;;;;;;;;;;755453;183;870442;-66
2023/02/09 06:49:57;;;;;;;82.53;44.10;;;;;;;;;;759319;182;918366;-71
2023/02/09 06:52:22;;;;;;;89.70;47.97;;;;;;;;;;755244;183;918241;-71
2023/02/09 06:54:48;;;;;;;98.50;50.40;;;;;;;;;;760693;181;920074;-66
2023/02/09 06:57:14;;;;;;;89.93;49.90;;;;;;;;;;759487;182;919537;-66
2023/02/09 06:59:40;;;;;;;89.60;49.50;;;;;;;;;;753388;183;890657;-65
2023/02/09 07:02:06;;;;;;;87.70;50.20;;;;;;;;;;753168;183;917866;-67
2023/02/09 07:04:32;;;;;;;92.75;51.33;;;;;;;;;;759663;183;918896;-66
2023/02/09 07:06:58;;;;;;;103.47;53.07;;;;;;;;;;756478;183;819713;-66
2023/02/09 07:09:24;;;;;;;102.23;51.27;;;;;;;;;;756225;182;913664;-69
2023/02/09 07:11:50;;;;;;;93.28;48.83;;;;;;;;;;755017;183;920306;-65
2023/02/09 07:14:15;;;;;;;100.57;49.83;;;;;;;;;;760438;183;922176;-65
2023/02/09 07:16:41;;;;;;;84.23;45.67;;;;;;;;;;759830;182;914969;-68
2023/02/09 07:19:07;;;;;;;86.72;48.60;;;;;;;;;;759172;183;916441;-70
2023/02/09 07:21:33;;;;;;;108.17;52.90;;;;;;;;;;761387;183;919790;-65
2023/02/09 07:23:59;;;;;;;76.07;44.37;;;;;;;;;;759126;179;825277;-70
2023/02/09 07:26:25;;;;;;;91.43;42.62;;;;;;;;;;757694;183;925199;-65
2023/02/09 07:28:51;;;;;;;69.20;38.03;;;;;;;;;;764156;183;921526;-69
2023/02/09 07:31:17;;;;;;;63.63;36.63;;;;;;;;;;754861;183;886440;-70
2023/02/09 07:33:42;;;;;;;64.00;37.50;;;;;;;;;;754653;183;919178;-70
2023/02/09 07:36:09;;;;;;;61.63;36.50;;;;;;;;;;759242;181;823685;-65
2023/02/09 07:38:35;;;;;;;65.90;36.87;;;;;;;;;;768958;181;815696;-64
2023/02/09 07:41:01;;;;;;;68.63;37.87;;;;;;;;;;756820;183;917379;-70
2023/02/09 07:43:27;;;;;;;65.07;33.03;;;;;;;;;;757507;180;917535;-63
2023/02/09 07:45:53;;;;;;;57.47;32.80;;;;;;;;;;759146;180;816838;-71
2023/02/09 07:48:19;;;;;;;56.27;32.57;;;;;;;;;;758720;183;918110;-70
2023/02/09 07:50:47;;;;;;;58.17;31.73;;;;;;;;;;752908;183;922506;-72
2023/02/09 07:53:13;;;;;;;69.93;33.90;;;;;;;;;;752731;183;948784;-66
2023/02/09 07:55:39;;;;;;;55.10;32.60;;;;;;;;;;757249;183;910734;-71
2023/02/09 07:58:05;;;;;;;62.10;32.40;;;;;;;;;;755431;182;918475;-72
2023/02/09 08:00:31;;;;;;;52.77;29.77;;;;;;;;;;759181;183;841892;-66
2023/02/09 08:02:57;;;;;;;44.10;23.90;;;;;;;;;;760044;182;909571;-66
2023/02/09 08:05:24;;;;;;;31.63;18.70;;;;;;;;;;755748;183;918785;-67
2023/02/09 08:07:50;;;;;;;25.00;14.50;;;;;;;;;;756063;182;921279;-71
2023/02/09 08:10:16;;;;;;;28.67;12.67;;;;;;;;;;757726;183;817586;-71
2023/02/09 08:15:14;;;;;;;23.15;12.27;;;;;;;;;;757565;182;919049;-65
2023/02/09 08:17:39;;;;;;;26.47;14.00;;;;;;;;;;753179;183;911666;-67
2023/02/09 08:20:06;;;;;;;22.73;11.00;;;;;;;;;;761180;182;812290;-64
2023/02/09 08:22:32;;;;;;;19.87;10.73;;;;;;;;;;768662;182;816667;-70
2023/02/09 08:24:58;;;;;;;17.30;10.57;;;;;;;;;;761791;182;916292;-64
2023/02/09 08:27:24;;;;;;;24.67;13.00;;;;;;;;;;763295;182;889202;-71
2023/02/09 08:29:50;;;;;;;22.90;11.23;;;;;;;;;;759907;180;921687;-65
2023/02/09 08:32:16;;;;;;;26.90;13.97;;;;;;;;;;754622;183;941652;-64
2023/02/09 08:34:42;;;;;;;23.50;12.47;;;;;;;;;;754614;183;921525;-65
2023/02/09 08:37:07;;;;;;;18.23;11.73;;;;;;;;;;764152;181;913064;-64
2023/02/09 08:39:33;;;;;;;19.03;11.07;;;;;;;;;;753907;182;915078;-73
2023/02/09 08:41:59;;;;;;;19.00;11.33;;;;;;;;;;755797;183;918009;-66
2023/02/09 08:44:25;;;;;;;23.30;12.83;;;;;;;;;;758322;183;918615;-64
2023/02/09 08:46:51;;;;;;;20.70;11.13;;;;;;;;;;753309;183;918992;-72
2023/02/09 08:49:17;;;;;;;25.40;11.30;;;;;;;;;;758596;183;919186;-64
2023/02/09 08:51:43;;;;;;;26.07;12.53;;;;;;;;;;759871;183;917059;-65
2023/02/09 08:54:09;;;;;;;19.23;12.67;;;;;;;;;;752388;183;920736;-65
2023/02/09 08:56:35;;;;;;;20.17;12.20;;;;;;;;;;755193;183;931876;-72
2023/02/09 08:59:02;;;;;;;19.25;11.63;;;;;;;;;;759004;183;921524;-64
2023/02/09 09:01:28;;;;;;;22.33;12.80;;;;;;;;;;756222;185;920499;-72
2023/02/09 09:03:54;;;;;;;20.63;12.70;;;;;;;;;;755560;183;919332;-73
2023/02/09 09:06:20;;;;;;;25.40;11.50;;;;;;;;;;753446;182;711849;-65
2023/02/09 09:08:45;;;;;;;18.07;10.70;;;;;;;;;;766148;180;818869;-64
2023/02/09 09:11:13;;;;;;;20.60;12.50;;;;;;;;;;755244;183;919412;-64
2023/02/09 09:13:37;;;;;;;19.73;12.30;;;;;;;;;;762056;182;623803;-65
2023/02/09 09:16:03;;;;;;;21.30;12.17;;;;;;;;;;764493;183;631068;-71
2023/02/09 09:18:29;;;;;;;24.50;13.07;;;;;;;;;;760458;183;624507;-72
2023/02/09 09:20:55;;;;;;;19.50;12.43;;;;;;;;;;753721;185;917490;-71
2023/02/09 09:23:21;;;;;;;21.87;10.47;;;;;;;;;;756325;182;1010008;-71
2023/02/09 09:25:47;;;;;;;21.43;11.90;;;;;;;;;;752558;182;916638;-66
2023/02/09 09:28:12;;;;;;;18.80;11.63;;;;;;;;;;760323;182;916650;-64
2023/02/09 09:30:38;;;;;;;14.63;9.60;;;;;;;;;;762403;181;918107;-63
2023/02/09 09:33:04;;;;;;;20.93;10.57;;;;;;;;;;761551;181;918415;-64
2023/02/09 09:35:30;;;;;;;20.80;12.40;;;;;;;;;;760167;183;918768;-64
2023/02/09 09:37:57;;;;;;;16.10;9.93;;;;;;;;;;765803;180;918080;-63
2023/02/09 09:40:22;;;;;;;13.70;9.38;;;;;;;;;;757857;183;821217;-64
2023/02/09 09:42:51;;;;;;;24.00;12.10;;;;;;;;;;756790;183;915608;-73
2023/02/09 09:45:17;;;;;;;20.97;10.27;;;;;;;;;;756441;182;911547;-63
2023/02/09 09:47:43;;;;;;;18.30;11.10;;;;;;;;;;756330;183;921511;-73
2023/02/09 09:50:13;;;;;;;24.10;12.37;;;;;;;;;;758336;184;920952;-63
2023/02/09 09:52:37;;;;;;;16.57;10.23;;;;;;;;;;755687;182;843514;-73
2023/02/09 09:55:03;;;;;;;15.40;10.00;;;;;;;;;;758088;183;818201;-74
2023/02/09 09:57:29;;;;;;;23.00;11.23;;;;;;;;;;761237;182;918220;-74
2023/02/09 09:59:55;;;;;;;20.90;11.50;;;;;;;;;;756228;183;1020402;-74
2023/02/09 10:02:22;;;;;;;16.17;10.87;;;;;;;;;;757689;182;820633;-63
2023/02/09 10:04:47;;;;;;;14.90;8.87;;;;;;;;;;759948;183;822128;-75
2023/02/09 10:07:13;;;;;;;18.30;10.93;;;;;;;;;;756093;182;946381;-74
2023/02/09 10:09:39;;;;;;;18.33;11.23;;;;;;;;;;762400;182;818701;-74
2023/02/09 10:12:20;;;;;;;17.77;9.47;;;;;;;;;;760160;183;800011;-62
2023/02/09 10:14:46;;;;;;;18.30;10.73;;;;;;;;;;751623;182;919358;-75
2023/02/09 10:17:12;;;;;;;23.33;11.60;;;;;;;;;;747568;185;918145;-63
2023/02/09 10:19:37;;;;;;;23.05;11.85;;;;;;;;;;753710;183;919140;-73
2023/02/09 10:22:03;;;;;;;18.70;11.30;;;;;;;;;;757950;183;919554;-62
2023/02/09 10:24:29;;;;;;;16.57;11.00;;;;;;;;;;760692;182;917725;-63
2023/02/09 10:27:01;;;;;;;19.13;11.50;;;;;;;;;;760639;182;920106;-73
2023/02/09 10:29:27;;;;;;;18.43;11.47;;;;;;;;;;758564;182;816464;-73
2023/02/09 10:31:53;;;;;;;18.87;9.33;;;;;;;;;;755813;184;919247;-63
2023/02/09 10:34:18;;;;;;;20.23;11.07;;;;;;;;;;750554;185;817098;-63
2023/02/09 10:36:45;;;;;;;18.80;10.83;;;;;;;;;;753684;182;818090;-73
2023/02/09 10:39:11;;;;;;;26.60;11.43;;;;;;;;;;757258;183;916015;-72
2023/02/09 10:41:37;;;;;;;14.30;10.70;;;;;;;;;;759081;182;812181;-63
2023/02/09 10:44:04;;;;;;;17.50;10.70;;;;;;;;;;759347;182;927788;-73
2023/02/09 10:46:30;;;;;;;15.67;9.40;;;;;;;;;;755650;182;817080;-63
2023/02/09 10:48:56;;;;;;;16.80;10.07;;;;;;;;;;763524;183;851012;-72
2023/02/09 10:51:27;;;;;;;16.57;10.70;;;;;;;;;;759825;182;912046;-63
2023/02/09 10:54:07;;;;;;;19.57;10.17;;;;;;;;;;753694;182;917703;-72
2023/02/09 10:56:33;;;;;;;20.23;11.80;;;;;;;;;;760260;183;918628;-72
2023/02/09 10:58:59;;;;;;;21.17;11.50;;;;;;;;;;764754;181;1021077;-71
2023/02/09 11:01:25;;;;;;;17.03;9.57;;;;;;;;;;757701;182;922766;-62
2023/02/09 11:03:54;;;;;;;16.07;9.73;;;;;;;;;;756658;182;1021199;-63
2023/02/09 11:06:20;;;;;;;21.43;9.63;;;;;;;;;;767709;181;916234;-72
2023/02/09 11:08:46;;;;;;;15.90;8.13;;;;;;;;;;760734;183;917811;-62
2023/02/09 11:11:17;;;;;;;18.33;10.27;;;;;;;;;;754997;182;919393;-63
2023/02/09 11:13:43;;;;;;;18.70;11.60;;;;;;;;;;758956;182;872466;-63
2023/02/09 11:16:10;;;;;;;17.57;11.43;;;;;;;;;;759493;181;921049;-63
2023/02/09 11:18:35;;;;;;;20.17;10.53;;;;;;;;;;756582;183;918911;-71
2023/02/09 11:21:16;;;;;;;15.88;9.63;;;;;;;;;;753621;183;920475;-63
2023/02/09 11:23:48;;;;;;;16.53;9.10;;;;;;;;;;750585;183;943498;-72
2023/02/09 11:26:14;;;;;;;17.73;11.00;;;;;;;;;;755136;183;919167;-71
2023/02/09 11:28:44;;;;;;;16.43;9.37;;;;;;;;;;750533;184;918053;-72
2023/02/09 11:31:11;;;;;;;21.10;10.90;;;;;;;;;;762853;182;1021028;-63
2023/02/09 11:33:39;;;;;;;14.43;10.23;;;;;;;;;;758765;181;907780;-63
2023/02/09 11:36:10;;;;;;;17.98;10.85;;;;;;;;;;760219;182;913915;-63
2023/02/09 11:38:37;;;;;;;17.90;10.43;;;;;;;;;;752673;183;824327;-71
2023/02/09 11:42:42;;;;;;;16.13;10.40;;;;;;;;;;760312;182;917870;-61
2023/02/09 11:43:32;;;;;;;14.30;9.20;;;;;;;;;;756363;183;917699;-73
2023/02/09 11:45:58;;;;;;;15.23;9.38;;;;;;;;;;752680;182;873381;-63
2023/02/09 11:48:28;;;;;;;14.53;9.40;;;;;;;;;;762627;181;817552;-63
2023/02/09 11:50:57;;;;;;;16.30;11.37;;;;;;;;;;756723;182;920286;-62
2023/02/09 11:53:23;;;;;;;16.93;9.87;;;;;;;;;;763248;180;920016;-73
2023/02/09 11:55:48;;;;;;;18.23;9.52;;;;;;;;;;756167;183;937255;-72
2023/02/09 11:58:16;;;;;;;14.40;8.93;;;;;;;;;;766901;183;948572;-75
2023/02/09 12:00:43;;;;;;;15.07;10.07;;;;;;;;;;760286;181;921868;-63
2023/02/09 12:03:09;;;;;;;18.40;10.10;;;;;;;;;;758516;183;816882;-63
2023/02/09 12:05:35;;;;;;;19.20;11.47;;;;;;;;;;758797;183;915704;-73
2023/02/09 12:08:05;;;;;;;20.47;8.40;;;;;;;;;;754014;183;1020848;-62
2023/02/09 12:10:36;;;;;;;15.10;9.93;;;;;;;;;;758544;182;921865;-73
2023/02/09 12:13:02;;;;;;;18.27;10.30;;;;;;;;;;769559;180;825892;-63
2023/02/09 12:15:30;;;;;;;14.67;9.40;;;;;;;;;;765045;182;816820;-63
2023/02/09 12:17:56;;;;;;;20.70;10.70;;;;;;;;;;754886;182;918803;-63
2023/02/09 12:20:24;;;;;;;16.73;10.33;;;;;;;;;;757332;182;918921;-64
2023/02/09 12:22:50;;;;;;;17.80;10.47;;;;;;;;;;758076;179;817072;-71
2023/02/09 12:25:20;;;;;;;18.40;11.37;;;;;;;;;;772961;179;916411;-73
2023/02/09 12:27:52;;;;;;;20.10;11.63;;;;;;;;;;756290;183;922306;-63
2023/02/09 12:30:23;;;;;;;20.67;11.93;;;;;;;;;;753219;182;918138;-72
2023/02/09 12:32:50;;;;;;;16.40;11.00;;;;;;;;;;761389;183;917660;-72
2023/02/09 12:35:23;;;;;;;14.93;8.90;;;;;;;;;;765771;183;1020843;-62
2023/02/09 12:38:00;;;;;;;19.87;11.30;;;;;;;;;;758625;183;919049;-63
2023/02/09 12:40:26;;;;;;;18.40;10.33;;;;;;;;;;766845;180;919490;-68
2023/02/09 12:43:07;;;;;;;15.47;10.30;;;;;;;;;;764993;182;813408;-72
2023/02/09 12:45:34;;;;;;;17.57;10.30;;;;;;;;;;759784;181;920256;-63
2023/02/09 12:48:00;;;;;;;13.57;9.03;;;;;;;;;;755911;182;919876;-72
2023/02/09 12:50:26;;;;;;;19.70;11.63;;;;;;;;;;749323;186;618575;-72
2023/02/09 12:52:58;;;;;;;18.20;10.80;;;;;;;;;;745806;185;626963;-73
2023/02/09 12:55:24;;;;;;;19.27;11.57;;;;;;;;;;754493;183;817660;-74
2023/02/09 12:57:50;;;;;;;19.83;9.87;;;;;;;;;;757448;183;912173;-64
2023/02/09 13:00:25;;;;;;;19.10;10.70;;;;;;;;;;756955;183;919126;-73
2023/02/09 13:02:54;;;;;;;13.00;8.33;;;;;;;;;;765976;180;923965;-64
2023/02/09 13:05:20;;;;;;;18.03;11.20;;;;;;;;;;761038;182;919826;-72
2023/02/09 13:07:54;;;;;;;18.37;9.60;;;;;;;;;;763861;184;920901;-72
2023/02/09 13:10:20;;;;;;;17.87;9.30;;;;;;;;;;758269;185;816543;-64
2023/02/09 13:12:46;;;;;;;12.63;8.43;;;;;;;;;;754832;182;920029;-64
2023/02/09 13:15:12;;;;;;;17.03;9.23;;;;;;;;;;762763;183;920624;-64
2023/02/09 13:17:39;;;;;;;21.00;11.20;;;;;;;;;;767660;183;919985;-71
2023/02/09 13:20:10;;;;;;;15.63;7.50;;;;;;;;;;756969;183;818422;-63
2023/02/09 13:22:38;;;;;;;12.27;8.20;;;;;;;;;;753158;186;918445;-72
2023/02/09 13:25:06;;;;;;;9.27;5.37;;;;;;;;;;754144;183;919178;-71
2023/02/09 13:27:32;;;;;;;17.57;10.47;;;;;;;;;;759882;183;918920;-62
2023/02/09 13:29:58;;;;;;;17.17;10.63;;;;;;;;;;759976;182;1022152;-63
2023/02/09 13:32:30;;;;;;;13.37;9.60;;;;;;;;;;759256;182;911898;-63
2023/02/09 13:34:57;;;;;;;19.00;10.30;;;;;;;;;;756794;182;885145;-64
2023/02/09 13:37:39;;;;;;;13.43;8.47;;;;;;;;;;760544;182;842728;-72
2023/02/09 13:40:10;;;;;;;17.70;9.97;;;;;;;;;;755841;185;914941;-72
2023/02/09 13:42:36;;;;;;;26.90;10.40;;;;;;;;;;753646;182;911372;-64
2023/02/09 13:45:02;;;;;;;17.03;9.53;;;;;;;;;;754621;182;914332;-73
2023/02/09 13:47:28;;;;;;;20.48;11.12;;;;;;;;;;754678;184;918673;-64
2023/02/09 13:50:03;;;;;;;17.80;10.90;;;;;;;;;;758606;184;816643;-73
2023/02/09 13:52:31;;;;;;;20.27;10.50;;;;;;;;;;750724;183;922477;-64
2023/02/09 13:54:57;;;;;;;21.33;11.23;;;;;;;;;;752567;184;918748;-72
2023/02/09 13:57:24;;;;;;;18.60;9.45;;;;;;;;;;753901;183;918558;-64
2023/02/09 13:59:50;;;;;;;16.20;10.70;;;;;;;;;;759687;182;907811;-64
2023/02/09 14:02:16;;;;;;;21.67;12.23;;;;;;;;;;755778;183;920082;-71
2023/02/09 14:04:42;;;;;;;24.80;11.30;;;;;;;;;;758771;183;918674;-71
2023/02/09 14:07:07;;;;;;;20.80;11.47;;;;;;;;;;767397;183;817733;-63
2023/02/09 14:09:37;;;;;;;25.63;10.37;;;;;;;;;;757143;183;919549;-64